createdAt,value
2023-04-10T00:00:05.223Z,100077.00
2023-04-10T00:02:08.857Z,100080.75
2023-04-10T00:04:14.601Z,100076.56
2023-04-10T00:06:19.762Z,100075.09
2023-04-10T00:08:25.169Z,100073.63
2023-04-10T00:10:30.711Z,100073.81
2023-04-10T00:12:34.480Z,100073.34
2023-04-10T00:14:39.861Z,100072.72
2023-04-10T00:16:43.233Z,100063.34
2023-04-10T00:18:46.573Z,100065.25
2023-04-10T00:20:49.975Z,100068.13
2023-04-10T00:22:53.416Z,100067.41
2023-04-10T00:24:56.780Z,100070.16
2023-04-10T00:27:00.321Z,100070.38
2023-04-10T00:29:04.010Z,100075.81
2023-04-10T00:31:09.237Z,100071.59
2023-04-10T00:33:12.821Z,100074.22
2023-04-10T00:35:17.047Z,100071.81
2023-04-10T00:37:20.289Z,100064.00
2023-04-10T00:39:24.291Z,100069.41
2023-04-10T00:41:29.711Z,100072.19
2023-04-10T00:43:33.096Z,100057.38
2023-04-10T00:45:36.539Z,100066.25
2023-04-10T00:47:41.898Z,100063.72
2023-04-10T00:49:45.524Z,100057.56
2023-04-10T00:51:48.983Z,100057.81
2023-04-10T00:53:53.311Z,100056.97
2023-04-10T00:55:58.233Z,100061.41
2023-04-10T00:58:01.657Z,100055.28
2023-04-10T01:00:06.025Z,100049.16
2023-04-10T01:02:10.446Z,100041.41
2023-04-10T01:04:16.408Z,100042.47
2023-04-10T01:06:28.289Z,100039.00
2023-04-10T01:08:40.720Z,100040.69
2023-04-10T01:10:49.885Z,100031.81
2023-04-10T01:13:01.086Z,100034.34
2023-04-10T01:15:08.118Z,100033.28
2023-04-10T01:17:18.796Z,100036.63
2023-04-10T01:19:34.089Z,100026.78
2023-04-10T01:21:39.277Z,100020.50
2023-04-10T01:24:04.880Z,100021.38
2023-04-10T01:26:12.341Z,100016.78
2023-04-10T01:28:45.807Z,100014.00
2023-04-10T01:30:55.237Z,100021.75
2023-04-10T01:33:02.000Z,100010.31
2023-04-10T01:35:09.306Z,100016.34
2023-04-10T01:37:17.860Z,100021.50
2023-04-10T01:39:23.192Z,100018.97
2023-04-10T01:41:27.853Z,100009.34
2023-04-10T01:43:36.176Z,100017.28
2023-04-10T01:45:41.849Z,100008.63
2023-04-10T01:47:47.346Z,100010.53
2023-04-10T01:49:51.854Z,100007.06
2023-04-10T01:51:58.482Z,100008.00
2023-04-10T01:54:06.992Z,100008.00
2023-04-10T01:56:11.530Z,99996.34
2023-04-10T01:58:21.732Z,100004.16
2023-04-10T02:00:25.342Z,99999.84
2023-04-10T02:02:32.495Z,99994.53
2023-04-10T02:04:37.413Z,99992.84
2023-04-10T02:06:51.490Z,99991.19
2023-04-10T02:08:58.789Z,99990.44
2023-04-10T02:11:09.098Z,100000.19
2023-04-10T02:13:15.903Z,100004.63
2023-04-10T02:15:21.142Z,99994.03
2023-04-10T02:17:30.167Z,99988.75
2023-04-10T02:19:35.856Z,99987.91
2023-04-10T02:21:42.274Z,99998.50
2023-04-10T02:23:45.827Z,99985.13
2023-04-10T02:25:49.203Z,99981.78
2023-04-10T02:27:52.708Z,99973.72
2023-04-10T02:29:56.867Z,99967.56
2023-04-10T02:32:02.137Z,99966.72
2023-04-10T02:34:05.956Z,99956.97
2023-04-10T02:36:10.417Z,99970.22
2023-04-10T02:38:17.271Z,99975.38
2023-04-10T02:40:21.662Z,99978.16
2023-04-10T02:42:51.069Z,99983.31
2023-04-10T02:44:54.371Z,99982.38
2023-04-10T02:46:57.863Z,99977.06
2023-04-10T02:49:01.731Z,99970.00
2023-04-10T02:51:06.119Z,99965.53
2023-04-10T02:53:09.375Z,99969.00
2023-04-10T02:55:14.436Z,99955.91
2023-04-10T02:57:18.453Z,99956.00
2023-04-10T02:59:22.114Z,99952.41
2023-04-10T03:01:25.796Z,99952.53
2023-04-10T03:03:29.280Z,99944.94
2023-04-10T03:05:33.304Z,99951.22
2023-04-10T03:07:36.720Z,99951.22
2023-04-10T03:09:40.162Z,99951.22
2023-04-10T03:11:44.911Z,99951.22
2023-04-10T03:13:49.109Z,99956.38
2023-04-10T03:15:52.724Z,99949.28
2023-04-10T03:17:56.792Z,99942.06
2023-04-10T03:20:00.451Z,99936.78
2023-04-10T03:22:04.103Z,99938.69
2023-04-10T03:24:07.644Z,99942.28
2023-04-10T03:26:11.188Z,99935.53
2023-04-10T03:28:16.471Z,99940.13
2023-04-10T03:30:19.767Z,99937.72
2023-04-10T03:32:24.698Z,99943.09
2023-04-10T03:34:28.280Z,99951.16
2023-04-10T03:36:32.346Z,99937.94
2023-04-10T03:38:35.956Z,99945.16
2023-04-10T03:40:40.266Z,99932.16
2023-04-10T03:42:46.641Z,99936.94
2023-04-10T03:44:51.815Z,99938.84
2023-04-10T03:46:56.469Z,99939.09
2023-04-10T03:48:59.950Z,99934.75
2023-04-10T03:51:04.386Z,99930.78
2023-04-10T03:53:07.821Z,99933.78
2023-04-10T03:55:11.469Z,99940.25
2023-04-10T03:57:14.918Z,99943.09
2023-04-10T03:59:18.167Z,99941.66
2023-04-10T04:01:24.253Z,99936.59
2023-04-10T04:03:42.411Z,99934.19
2023-04-10T04:06:04.268Z,99924.69
2023-04-10T04:08:14.097Z,99933.69
2023-04-10T04:10:36.098Z,99914.44
2023-04-10T04:12:52.829Z,99919.13
2023-04-10T04:15:02.557Z,99917.66
2023-04-10T04:17:25.131Z,99914.38
2023-04-10T04:19:40.756Z,99911.97
2023-04-10T04:21:54.687Z,99905.97
2023-04-10T04:24:17.295Z,99912.44
2023-04-10T04:26:36.181Z,99914.47
2023-04-10T04:28:49.933Z,99911.19
2023-04-10T04:31:12.266Z,99910.47
2023-04-10T04:33:40.267Z,99904.44
2023-04-10T04:36:02.301Z,99911.66
2023-04-10T04:38:24.762Z,99902.75
2023-04-10T04:40:57.848Z,99905.50
2023-04-10T04:43:20.270Z,99901.06
2023-04-10T04:45:41.671Z,99895.78
2023-04-10T04:48:06.470Z,99895.03
2023-04-10T04:50:30.258Z,99887.34
2023-04-10T04:52:54.364Z,99878.66
2023-04-10T04:55:10.687Z,99885.66
2023-04-10T04:57:32.833Z,99885.66
2023-04-10T04:59:55.684Z,99877.59
2023-04-10T05:02:19.055Z,99872.31
2023-04-10T05:04:43.894Z,99881.81
2023-04-10T05:07:02.986Z,99872.19
2023-04-10T05:09:20.444Z,99878.34
2023-04-10T05:11:48.249Z,99869.47
2023-04-10T05:14:10.388Z,99867.66
2023-04-10T05:16:36.971Z,99868.50
2023-04-10T05:19:09.876Z,99870.19
2023-04-10T05:21:28.492Z,99871.03
2023-04-10T05:23:43.881Z,99871.25
2023-04-10T05:26:19.913Z,99876.78
2023-04-10T05:28:42.054Z,99868.84
2023-04-10T05:31:01.763Z,99872.56
2023-04-10T05:33:26.221Z,99869.19
2023-04-10T05:35:59.905Z,99876.25
2023-04-10T05:38:13.486Z,99872.66
2023-04-10T05:40:31.597Z,99877.84
2023-04-10T05:42:53.865Z,99872.66
2023-04-10T05:45:16.656Z,99870.84
2023-04-10T05:47:38.951Z,99875.94
2023-04-10T05:50:06.482Z,99877.84
2023-04-10T05:52:28.758Z,99879.66
2023-04-10T05:54:55.357Z,99883.00
2023-04-10T05:57:19.282Z,99887.56
2023-04-10T05:59:43.454Z,99890.22
2023-04-10T06:02:09.915Z,99895.28
2023-04-10T06:04:14.787Z,99886.16
2023-04-10T06:06:20.851Z,99896.38
2023-04-10T06:08:25.136Z,99900.19
2023-04-10T06:10:31.104Z,99897.81
2023-04-10T06:12:36.464Z,99890.16
2023-04-10T06:14:42.007Z,99885.38
2023-04-10T06:16:46.266Z,99886.06
2023-04-10T06:18:53.105Z,99890.81
2023-04-10T06:20:58.350Z,99880.38
2023-04-10T06:23:02.227Z,99880.75
2023-04-10T06:25:08.147Z,99879.94
2023-04-10T06:27:12.761Z,99877.44
2023-04-10T06:29:18.482Z,99884.19
2023-04-10T06:31:23.675Z,99890.31
2023-04-10T06:33:27.670Z,99889.00
2023-04-10T06:35:31.615Z,99890.31
2023-04-10T06:37:35.902Z,99890.94
2023-04-10T06:39:41.632Z,99894.41
2023-04-10T06:41:46.140Z,99897.19
2023-04-10T06:44:02.587Z,99902.34
2023-04-10T06:46:11.148Z,99906.47
2023-04-10T06:48:15.352Z,99910.63
2023-04-10T06:50:19.140Z,99915.81
2023-04-10T06:52:22.841Z,99912.06
2023-04-10T06:54:26.485Z,99903.88
2023-04-10T06:56:30.008Z,99907.78
2023-04-10T06:58:33.642Z,99904.88
2023-04-10T07:00:37.174Z,99904.41
2023-04-10T07:02:42.096Z,99903.91
2023-04-10T07:04:45.843Z,99900.88
2023-04-10T07:06:49.725Z,99910.34
2023-04-10T07:08:53.768Z,99905.75
2023-04-10T07:10:58.813Z,99901.75
2023-04-10T07:13:03.426Z,99905.47
2023-04-10T07:15:09.258Z,99900.59
2023-04-10T07:17:13.764Z,99910.47
2023-04-10T07:19:19.502Z,99909.72
2023-04-10T07:21:23.436Z,99910.78
2023-04-10T07:23:27.648Z,99911.84
2023-04-10T07:25:31.792Z,99916.13
2023-04-10T07:27:35.504Z,99919.78
2023-04-10T07:29:39.170Z,99916.41
2023-04-10T07:31:43.717Z,99912.81
2023-04-10T07:33:48.755Z,99910.94
2023-04-10T07:35:54.173Z,99911.78
2023-04-10T07:37:58.775Z,99909.78
2023-04-10T07:40:03.059Z,99903.34
2023-04-10T07:42:07.634Z,99908.22
2023-04-10T07:44:13.467Z,99912.94
2023-04-10T07:46:18.199Z,99901.03
2023-04-10T07:48:22.415Z,99900.59
2023-04-10T07:50:26.794Z,99901.97
2023-04-10T07:52:32.611Z,99900.59
2023-04-10T07:54:37.898Z,99899.94
2023-04-10T07:56:43.023Z,99901.00
2023-04-10T07:58:47.107Z,99902.91
2023-04-10T08:00:54.499Z,99897.84
2023-04-10T08:02:58.790Z,99892.75
2023-04-10T08:05:04.131Z,99904.16
2023-04-10T08:07:08.542Z,99898.91
2023-04-10T08:09:14.085Z,99900.66
2023-04-10T08:11:26.368Z,99905.09
2023-04-10T08:13:30.632Z,99892.03
2023-04-10T08:15:35.079Z,99890.44
2023-04-10T08:17:39.036Z,99886.09
2023-04-10T08:19:43.674Z,99884.34
2023-04-10T08:21:47.933Z,99878.19
2023-04-10T08:23:52.528Z,99885.06
2023-04-10T08:25:58.459Z,99877.91
2023-04-10T08:28:02.578Z,99885.59
2023-04-10T08:30:07.596Z,99879.38
2023-04-10T08:32:11.448Z,99893.19
2023-04-10T08:34:15.318Z,99891.22
2023-04-10T08:36:20.342Z,99881.28
2023-04-10T08:38:25.412Z,99883.84
2023-04-10T08:40:29.532Z,99882.75
2023-04-10T08:42:35.855Z,99882.75
2023-04-10T08:44:40.126Z,99878.22
2023-04-10T08:46:45.778Z,99878.13
2023-04-10T08:48:55.351Z,99878.78
2023-04-10T08:51:06.084Z,99878.44
2023-04-10T08:53:12.891Z,99871.06
2023-04-10T08:55:17.646Z,99872.44
2023-04-10T08:57:23.206Z,99871.91
2023-04-10T08:59:30.401Z,99872.34
2023-04-10T09:01:35.189Z,99863.84
2023-04-10T09:03:39.808Z,99865.97
2023-04-10T09:05:43.958Z,99866.28
2023-04-10T09:07:47.903Z,99865.50
2023-04-10T09:09:51.682Z,99856.59
2023-04-10T09:12:01.312Z,99855.06
2023-04-10T09:14:05.500Z,99847.44
2023-04-10T09:16:12.061Z,99850.50
2023-04-10T09:18:16.000Z,99845.16
2023-04-10T09:20:23.235Z,99854.81
2023-04-10T09:22:33.738Z,99846.16
2023-04-10T09:24:39.140Z,99844.00
2023-04-10T09:26:43.905Z,99850.13
2023-04-10T09:28:59.256Z,99844.66
2023-04-10T09:31:03.172Z,99843.31
2023-04-10T09:33:24.060Z,99831.53
2023-04-10T09:35:38.380Z,99839.75
2023-04-10T09:37:44.081Z,99834.78
2023-04-10T09:39:48.691Z,99832.16
2023-04-10T09:41:55.254Z,99827.63
2023-04-10T09:44:09.029Z,99826.59
2023-04-10T09:46:13.308Z,99825.56
2023-04-10T09:48:17.717Z,99832.59
2023-04-10T09:50:39.550Z,99828.72
2023-04-10T09:52:46.217Z,99825.97
2023-04-10T09:54:50.689Z,99828.88
2023-04-10T09:56:55.892Z,99833.72
2023-04-10T09:59:02.164Z,99821.69
2023-04-10T10:01:07.211Z,99829.09
2023-04-10T10:03:14.597Z,99824.84
2023-04-10T10:05:19.012Z,99836.63
2023-04-10T10:07:25.304Z,99825.34
2023-04-10T10:09:30.431Z,99832.03
2023-04-10T10:11:37.265Z,99835.47
2023-04-10T10:13:49.809Z,99820.97
2023-04-10T10:16:00.266Z,99822.81
2023-04-10T10:18:09.599Z,99821.84
2023-04-10T10:20:17.868Z,99820.66
2023-04-10T10:22:24.971Z,99818.63
2023-04-10T10:24:30.585Z,99816.66
2023-04-10T10:26:36.947Z,99814.63
2023-04-10T10:28:43.281Z,99813.00
2023-04-10T10:30:48.975Z,99805.34
2023-04-10T10:32:53.820Z,99805.84
2023-04-10T10:34:59.034Z,99809.31
2023-04-10T10:37:04.255Z,99801.34
2023-04-10T10:39:26.550Z,99797.59
2023-04-10T10:41:38.703Z,99800.00
2023-04-10T10:43:52.578Z,99785.88
2023-04-10T10:46:02.546Z,99782.19
2023-04-10T10:48:07.332Z,99789.47
2023-04-10T10:50:11.119Z,99792.25
2023-04-10T10:52:15.477Z,99794.06
2023-04-10T10:54:34.939Z,99786.75
2023-04-10T10:56:39.221Z,99793.03
2023-04-10T10:58:50.603Z,99795.81
2023-04-10T11:01:10.625Z,99798.19
2023-04-10T11:03:30.020Z,99798.19
2023-04-10T11:05:56.559Z,99787.41
2023-04-10T11:08:10.709Z,99787.91
2023-04-10T11:10:16.634Z,99785.06
2023-04-10T11:12:23.485Z,99787.72
2023-04-10T11:14:28.748Z,99783.97
2023-04-10T11:16:47.345Z,99785.19
2023-04-10T11:19:13.915Z,99782.28
2023-04-10T11:21:19.379Z,99790.97
2023-04-10T11:23:24.381Z,99785.06
2023-04-10T11:25:49.622Z,99779.44
2023-04-10T11:27:54.697Z,99771.34
2023-04-10T11:29:58.808Z,99774.53
2023-04-10T11:32:04.374Z,99762.34
2023-04-10T11:34:10.746Z,99748.00
2023-04-10T11:36:17.787Z,99752.31
2023-04-10T11:38:21.806Z,99760.88
2023-04-10T11:40:25.953Z,99773.28
2023-04-10T11:42:31.758Z,99808.94
2023-04-10T11:44:36.796Z,99801.28
2023-04-10T11:46:41.004Z,99821.03
2023-04-10T11:48:45.278Z,99837.59
2023-04-10T11:50:49.624Z,99840.75
2023-04-10T11:52:57.232Z,99848.38
2023-04-10T11:55:01.555Z,99836.41
2023-04-10T11:57:07.412Z,99852.59
2023-04-10T11:59:14.925Z,99846.63
2023-04-10T12:01:23.569Z,99854.59
2023-04-10T12:03:39.195Z,99845.91
2023-04-10T12:05:49.005Z,99846.22
2023-04-10T12:07:53.799Z,99854.16
2023-04-10T12:09:59.445Z,99864.00
2023-04-10T12:12:05.172Z,99865.19
2023-04-10T12:14:09.407Z,99867.38
2023-04-10T12:16:15.951Z,99874.78
2023-04-10T12:18:20.427Z,99875.72
2023-04-10T12:20:27.980Z,99870.44
2023-04-10T12:22:32.491Z,99866.44
2023-04-10T12:24:46.055Z,99853.56
2023-04-10T12:26:51.430Z,99853.31
2023-04-10T12:28:57.903Z,99846.88
2023-04-10T12:31:04.087Z,99852.53
2023-04-10T12:33:10.077Z,99863.06
2023-04-10T12:35:14.551Z,99859.91
2023-04-10T12:37:19.006Z,99859.59
2023-04-10T12:39:27.337Z,99849.94
2023-04-10T12:41:33.665Z,99845.03
2023-04-10T12:43:39.540Z,99841.94
2023-04-10T12:45:44.053Z,99847.72
2023-04-10T12:47:52.151Z,99834.00
2023-04-10T12:50:08.582Z,99829.19
2023-04-10T12:52:13.434Z,99828.06
2023-04-10T12:54:31.777Z,99834.72
2023-04-10T12:56:44.165Z,99833.00
2023-04-10T12:58:48.448Z,99831.56
2023-04-10T13:00:53.084Z,99828.66
2023-04-10T13:02:57.831Z,99826.50
2023-04-10T13:05:02.340Z,99821.19
2023-04-10T13:07:08.481Z,99827.72
2023-04-10T13:09:13.464Z,99830.34
2023-04-10T13:11:17.178Z,99833.22
2023-04-10T13:13:22.044Z,99830.47
2023-04-10T13:15:26.281Z,99826.03
2023-04-10T13:17:30.611Z,99819.63
2023-04-10T13:19:34.865Z,99825.28
2023-04-10T13:21:38.931Z,99828.13
2023-04-10T13:23:44.567Z,99835.84
2023-04-10T13:25:49.429Z,99843.03
2023-04-10T13:27:53.585Z,99846.25
2023-04-10T13:29:57.776Z,99845.31
2023-04-10T13:32:02.025Z,99845.63
2023-04-10T13:34:06.566Z,99845.38
2023-04-10T13:36:11.162Z,99853.59
2023-04-10T13:38:16.087Z,99852.75
2023-04-10T13:40:22.028Z,99844.00
2023-04-10T13:42:26.413Z,99853.44
2023-04-10T13:44:30.345Z,99842.47
2023-04-10T13:46:33.967Z,99835.84
2023-04-10T13:48:41.439Z,99840.31
2023-04-10T13:50:45.130Z,99843.66
2023-04-10T13:52:48.790Z,99836.84
2023-04-10T13:54:52.627Z,99830.59
2023-04-10T13:56:57.905Z,99832.78
2023-04-10T13:59:01.631Z,99840.00
2023-04-10T14:01:06.967Z,99839.16
2023-04-10T14:03:12.590Z,99851.56
2023-04-10T14:05:16.980Z,99862.03
2023-04-10T14:07:21.062Z,99884.53
2023-04-10T14:09:24.863Z,99875.88
2023-04-10T14:11:28.574Z,99886.97
2023-04-10T14:13:33.979Z,99888.75
2023-04-10T14:15:37.981Z,99907.59
2023-04-10T14:17:41.874Z,99902.88
2023-04-10T14:19:46.715Z,99926.50
2023-04-10T14:21:50.553Z,99927.00
2023-04-10T14:23:54.573Z,99920.06
2023-04-10T14:25:59.404Z,99913.88
2023-04-10T14:28:03.263Z,99917.38
2023-04-10T14:30:10.508Z,99924.19
2023-04-10T14:32:14.900Z,99911.63
2023-04-10T14:34:19.172Z,99905.09
2023-04-10T14:36:23.082Z,99906.06
2023-04-10T14:38:26.914Z,99913.56
2023-04-10T14:40:30.995Z,99910.22
2023-04-10T14:42:35.619Z,99908.91
2023-04-10T14:44:40.092Z,99902.56
2023-04-10T14:46:46.184Z,99898.72
2023-04-10T14:48:50.359Z,99903.53
2023-04-10T14:50:55.129Z,99901.38
2023-04-10T14:53:00.548Z,99904.50
2023-04-10T14:55:04.611Z,99891.53
2023-04-10T14:57:08.756Z,99888.28
2023-04-10T14:59:13.218Z,99890.06
2023-04-10T15:01:19.125Z,99898.50
2023-04-10T15:03:25.430Z,99906.22
2023-04-10T15:05:30.070Z,99900.75
2023-04-10T15:07:33.793Z,99899.53
2023-04-10T15:09:37.620Z,99892.41
2023-04-10T15:11:41.324Z,99880.00
2023-04-10T15:13:44.914Z,99884.59
2023-04-10T15:15:49.337Z,99885.53
2023-04-10T15:17:53.626Z,99876.53
2023-04-10T15:19:59.023Z,99886.16
2023-04-10T15:22:02.790Z,99871.94
2023-04-10T15:24:07.012Z,99875.34
2023-04-10T15:26:14.726Z,99874.03
2023-04-10T15:28:18.599Z,99870.56
2023-04-10T15:30:22.428Z,99870.69
2023-04-10T15:32:26.339Z,99883.34
2023-04-10T15:34:30.229Z,99891.16
2023-04-10T15:36:35.472Z,99882.47
2023-04-10T15:38:39.528Z,99894.38
2023-04-10T15:40:43.282Z,99893.06
2023-04-10T15:42:47.039Z,99902.69
2023-04-10T15:44:50.829Z,99894.88
2023-04-10T15:46:55.864Z,99887.88
2023-04-10T15:48:59.381Z,99904.59
2023-04-10T15:51:06.295Z,99908.81
2023-04-10T15:53:11.930Z,99910.88
2023-04-10T15:55:16.757Z,99915.22
2023-04-10T15:57:20.312Z,99924.25
2023-04-10T15:59:25.477Z,99932.19
2023-04-10T16:01:29.196Z,99946.50
2023-04-10T16:03:33.724Z,99961.63
2023-04-10T16:05:38.603Z,99977.97
2023-04-10T16:07:44.081Z,99965.06
2023-04-10T16:09:49.759Z,99983.97
2023-04-10T16:11:53.842Z,99971.66
2023-04-10T16:13:58.082Z,99979.19
2023-04-10T16:16:02.947Z,99980.38
2023-04-10T16:18:08.162Z,99970.78
2023-04-10T16:20:12.310Z,99971.84
2023-04-10T16:22:16.178Z,99966.78
2023-04-10T16:24:20.447Z,99973.72
2023-04-10T16:26:26.222Z,99965.47
2023-04-10T16:28:30.076Z,99954.91
2023-04-10T16:30:34.253Z,99955.97
2023-04-10T16:32:38.317Z,99966.03
2023-04-10T16:34:42.577Z,99958.34
2023-04-10T16:36:46.706Z,99969.34
2023-04-10T16:38:50.867Z,99994.19
2023-04-10T16:40:54.738Z,100026.34
2023-04-10T16:43:02.246Z,100074.56
2023-04-10T16:45:08.799Z,100073.28
2023-04-10T16:47:12.842Z,100080.94
2023-04-10T16:49:18.075Z,100062.19
2023-04-10T16:51:22.671Z,100063.25
2023-04-10T16:53:27.891Z,100071.53
2023-04-10T16:55:33.045Z,100076.63
2023-04-10T16:57:37.378Z,100073.25
2023-04-10T16:59:44.017Z,100071.25
2023-04-10T17:01:48.425Z,100074.75
2023-04-10T17:03:53.952Z,100063.91
2023-04-10T17:05:58.627Z,100061.81
2023-04-10T17:08:02.705Z,100038.66
2023-04-10T17:10:08.183Z,100030.44
2023-04-10T17:12:12.727Z,100014.59
2023-04-10T17:14:16.499Z,100020.63
2023-04-10T17:16:21.685Z,100031.81
2023-04-10T17:18:25.522Z,100029.94
2023-04-10T17:20:31.407Z,100025.28
2023-04-10T17:22:35.292Z,100031.22
2023-04-10T17:24:39.069Z,100028.47
2023-04-10T17:26:43.340Z,100037.16
2023-04-10T17:28:47.618Z,100033.75
2023-04-10T17:30:51.977Z,100038.19
2023-04-10T17:32:57.401Z,100041.75
2023-04-10T17:35:01.261Z,100041.97
2023-04-10T17:37:05.379Z,100046.28
2023-04-10T17:39:09.220Z,100045.16
2023-04-10T17:41:16.419Z,100040.41
2023-04-10T17:43:20.279Z,100055.75
2023-04-10T17:45:24.097Z,100056.28
2023-04-10T17:47:28.126Z,100059.38
2023-04-10T17:49:34.201Z,100053.88
2023-04-10T17:51:39.260Z,100052.63
2023-04-10T17:53:48.454Z,100055.81
2023-04-10T17:55:52.547Z,100060.22
2023-04-10T17:57:58.367Z,100061.19
2023-04-10T18:00:02.508Z,100061.47
2023-04-10T18:02:08.953Z,100067.91
2023-04-10T18:04:13.640Z,100050.69
2023-04-10T18:06:19.636Z,100053.56
2023-04-10T18:08:23.855Z,100065.97
2023-04-10T18:10:28.690Z,100067.13
2023-04-10T18:12:33.084Z,100105.09
2023-04-10T18:14:37.792Z,100099.22
2023-04-10T18:16:42.543Z,100095.34
2023-04-10T18:18:47.071Z,100080.97
2023-04-10T18:20:52.575Z,100074.22
2023-04-10T18:22:59.046Z,100077.59
2023-04-10T18:25:04.811Z,100081.66
2023-04-10T18:27:09.149Z,100085.66
2023-04-10T18:29:14.383Z,100085.47
2023-04-10T18:31:20.058Z,100100.91
2023-04-10T18:33:25.522Z,100096.25
2023-04-10T18:35:32.967Z,100112.09
2023-04-10T18:37:38.184Z,100099.84
2023-04-10T18:39:43.721Z,100104.47
2023-04-10T18:41:48.411Z,100107.41
2023-04-10T18:44:03.589Z,100112.03
2023-04-10T18:46:09.331Z,100115.94
2023-04-10T18:48:13.275Z,100121.28
2023-04-10T18:50:17.953Z,100124.97
2023-04-10T18:52:21.795Z,100125.16
2023-04-10T18:54:27.643Z,100130.53
2023-04-10T18:56:33.069Z,100130.63
2023-04-10T18:58:37.212Z,100149.00
2023-04-10T19:00:40.840Z,100166.41
2023-04-10T19:02:44.904Z,100161.25
2023-04-10T19:04:48.889Z,100185.94
2023-04-10T19:06:53.058Z,100165.41
2023-04-10T19:08:57.199Z,100158.69
2023-04-10T19:11:01.232Z,100158.38
2023-04-10T19:13:07.742Z,100157.72
2023-04-10T19:15:13.980Z,100162.84
2023-04-10T19:17:18.161Z,100165.03
2023-04-10T19:19:21.895Z,100162.00
2023-04-10T19:21:27.805Z,100170.06
2023-04-10T19:23:32.788Z,100175.56
2023-04-10T19:25:36.480Z,100172.09
2023-04-10T19:27:40.630Z,100171.25
2023-04-10T19:29:46.355Z,100173.88
2023-04-10T19:31:50.206Z,100174.63
2023-04-10T19:33:54.692Z,100181.50
2023-04-10T19:35:59.438Z,100182.19
2023-04-10T19:38:03.434Z,100190.66
2023-04-10T19:40:08.310Z,100192.13
2023-04-10T19:42:13.734Z,100197.97
2023-04-10T19:44:20.674Z,100184.59
2023-04-10T19:46:25.910Z,100194.66
2023-04-10T19:48:29.930Z,100189.16
2023-04-10T19:50:34.170Z,100201.09
2023-04-10T19:52:38.300Z,100189.47
2023-04-10T19:54:42.565Z,100194.44
2023-04-10T19:56:46.936Z,100221.34
2023-04-10T19:58:51.539Z,100246.56
2023-04-10T20:00:56.727Z,100246.25
2023-04-10T20:03:02.719Z,100229.84
2023-04-10T20:05:08.165Z,100228.50
2023-04-10T20:07:12.407Z,100223.91
2023-04-10T20:09:18.008Z,100218.44
2023-04-10T20:11:22.458Z,100227.78
2023-04-10T20:13:27.726Z,100224.63
2023-04-10T20:15:33.057Z,100225.81
2023-04-10T20:17:38.798Z,100223.41
2023-04-10T20:19:46.060Z,100228.03
2023-04-10T20:21:50.842Z,100233.44
2023-04-10T20:23:57.961Z,100238.78
2023-04-10T20:26:02.293Z,100239.69
2023-04-10T20:28:06.805Z,100249.28
2023-04-10T20:30:13.350Z,100246.66
2023-04-10T20:32:17.407Z,100247.34
2023-04-10T20:34:21.694Z,100245.47
2023-04-10T20:36:26.606Z,100245.34
2023-04-10T20:38:30.474Z,100244.28
2023-04-10T20:40:34.280Z,100241.50
2023-04-10T20:42:37.887Z,100243.97
2023-04-10T20:44:41.837Z,100244.66
2023-04-10T20:46:45.675Z,100244.50
2023-04-10T20:48:50.391Z,100255.72
2023-04-10T20:50:54.312Z,100254.66
2023-04-10T20:52:59.612Z,100250.94
2023-04-10T20:55:04.095Z,100269.94
2023-04-10T20:57:07.968Z,100288.13
2023-04-10T20:59:11.776Z,100276.41
2023-04-10T21:01:15.743Z,100289.31
2023-04-10T21:03:20.083Z,100304.09
2023-04-10T21:05:24.468Z,100294.38
2023-04-10T21:07:29.600Z,100314.59
2023-04-10T21:09:34.905Z,100312.16
2023-04-10T21:11:38.671Z,100309.84
2023-04-10T21:13:42.532Z,100314.69
2023-04-10T21:15:46.363Z,100319.34
2023-04-10T21:17:50.554Z,100309.19
2023-04-10T21:19:54.619Z,100314.72
2023-04-10T21:21:58.824Z,100317.63
2023-04-10T21:24:02.528Z,100319.56
2023-04-10T21:26:08.651Z,100314.56
2023-04-10T21:28:12.444Z,100316.41
2023-04-10T21:30:16.419Z,100317.44
2023-04-10T21:32:20.647Z,100312.34
2023-04-10T21:34:25.533Z,100312.41
2023-04-10T21:36:29.505Z,100313.34
2023-04-10T21:38:33.994Z,100320.31
2023-04-10T21:40:37.942Z,100306.41
2023-04-10T21:42:43.231Z,100316.06
2023-04-10T21:44:47.009Z,100318.69
2023-04-10T21:46:50.837Z,100314.38
2023-04-10T21:48:54.994Z,100318.78
2023-04-10T21:50:59.063Z,100319.69
2023-04-10T21:53:02.913Z,100320.66
2023-04-10T21:55:09.458Z,100308.44
2023-04-10T21:57:13.353Z,100313.69
2023-04-10T21:59:18.471Z,100322.41
2023-04-10T22:01:21.716Z,100316.22
2023-04-10T22:03:27.473Z,100317.94
2023-04-10T22:05:31.951Z,100323.19
2023-04-10T22:07:35.839Z,100319.69
2023-04-10T22:09:39.437Z,100318.03
2023-04-10T22:11:43.357Z,100321.56
2023-04-10T22:13:47.100Z,100310.22
2023-04-10T22:15:52.424Z,100316.31
2023-04-10T22:17:56.294Z,100327.75
2023-04-10T22:19:59.846Z,100322.41
2023-04-10T22:22:03.381Z,100330.31
2023-04-10T22:24:07.551Z,100325.03
2023-04-10T22:26:11.358Z,100333.81
2023-04-10T22:28:15.140Z,100315.38
2023-04-10T22:30:19.235Z,100323.19
2023-04-10T22:32:24.342Z,100317.00
2023-04-10T22:34:27.833Z,100321.41
2023-04-10T22:36:34.079Z,100325.75
2023-04-10T22:38:37.806Z,100324.03
2023-04-10T22:40:41.541Z,100324.03
2023-04-10T22:42:45.749Z,100331.09
2023-04-10T22:44:49.904Z,100323.19
2023-04-10T22:46:53.623Z,100326.75
2023-04-10T22:48:58.765Z,100316.22
2023-04-10T22:51:02.164Z,100325.03
2023-04-10T22:53:05.987Z,100323.38
2023-04-10T22:55:10.517Z,100326.84
2023-04-10T22:57:14.196Z,100341.78
2023-04-10T22:59:18.691Z,100346.09
2023-04-10T23:01:22.567Z,100339.81
2023-04-10T23:03:26.242Z,100337.09
2023-04-10T23:05:33.196Z,100326.50
2023-04-10T23:07:36.845Z,100340.50
2023-04-10T23:09:40.645Z,100338.81
2023-04-10T23:11:46.228Z,100338.88
2023-04-10T23:13:50.295Z,100345.94
2023-04-10T23:15:55.550Z,100347.69
2023-04-10T23:17:59.194Z,100356.50
2023-04-10T23:20:02.908Z,100356.59
2023-04-10T23:22:08.154Z,100350.50
2023-04-10T23:24:11.833Z,100364.56
2023-04-10T23:26:15.542Z,100363.75
2023-04-10T23:28:19.314Z,100365.50
2023-04-10T23:30:23.193Z,100377.81
2023-04-10T23:32:26.900Z,100369.16
2023-04-10T23:34:30.633Z,100377.97
2023-04-10T23:36:34.370Z,100376.34
2023-04-10T23:38:39.485Z,100373.88
2023-04-10T23:40:43.215Z,100375.72
2023-04-10T23:42:47.356Z,100374.91
2023-04-10T23:44:50.871Z,100380.16
2023-04-10T23:46:54.686Z,100380.25
2023-04-10T23:48:58.335Z,100381.16
2023-04-10T23:51:06.530Z,100371.56
2023-04-10T23:53:10.896Z,100380.38
2023-04-10T23:55:17.339Z,100375.19
2023-04-10T23:57:20.941Z,100384.00
2023-04-10T23:59:24.617Z,100383.16
